createdAt,value
2024-03-16T00:01:59.655Z,1.00
2024-03-16T00:04:27.695Z,0.80
2024-03-16T00:06:57.141Z,1.30
2024-03-16T00:09:25.918Z,1.07
2024-03-16T00:11:54.641Z,0.87
2024-03-16T00:14:22.590Z,1.03
2024-03-16T00:16:50.697Z,0.80
2024-03-16T00:19:19.472Z,0.80
2024-03-16T00:21:47.856Z,0.90
2024-03-16T00:24:16.458Z,0.77
2024-03-16T00:26:44.615Z,0.50
2024-03-16T00:29:12.759Z,0.73
2024-03-16T00:31:41.065Z,0.60
2024-03-16T00:34:09.790Z,0.70
2024-03-16T00:36:38.265Z,0.70
2024-03-16T00:39:16.199Z,0.60
2024-03-16T00:41:44.563Z,0.90
2024-03-16T00:44:13.001Z,0.90
2024-03-16T00:46:40.956Z,0.70
2024-03-16T00:49:09.547Z,0.70
2024-03-16T00:51:37.587Z,0.70
2024-03-16T00:54:05.551Z,0.70
2024-03-16T00:56:33.516Z,0.80
2024-03-16T00:59:01.680Z,0.77
2024-03-16T01:01:35.004Z,0.60
2024-03-16T01:04:03.845Z,0.70
2024-03-16T01:06:31.928Z,0.60
2024-03-16T01:09:00.195Z,0.70
2024-03-16T01:11:28.757Z,0.70
2024-03-16T01:13:56.771Z,0.70
2024-03-16T01:16:24.750Z,0.83
2024-03-16T01:18:52.812Z,0.70
2024-03-16T01:21:21.322Z,0.80
2024-03-16T01:23:49.810Z,0.80
2024-03-16T01:26:17.866Z,0.97
2024-03-16T01:28:46.729Z,0.77
2024-03-16T01:31:15.335Z,0.77
2024-03-16T01:33:43.529Z,0.60
2024-03-16T01:36:11.625Z,0.70
2024-03-16T01:38:39.779Z,0.77
2024-03-16T01:41:07.745Z,0.80
2024-03-16T01:43:36.000Z,0.90
2024-03-16T01:46:04.029Z,0.70
2024-03-16T01:48:32.558Z,1.17
2024-03-16T01:51:01.150Z,0.70
2024-03-16T01:53:29.105Z,0.60
2024-03-16T01:55:57.050Z,0.67
2024-03-16T01:58:25.120Z,0.70
2024-03-16T02:00:54.676Z,0.80
2024-03-16T02:03:23.311Z,0.73
2024-03-16T02:05:51.329Z,0.70
2024-03-16T02:08:19.310Z,0.93
2024-03-16T02:10:47.391Z,0.90
2024-03-16T02:13:15.596Z,1.10
2024-03-16T02:15:43.772Z,1.40
2024-03-16T02:18:12.166Z,1.20
2024-03-16T02:20:40.192Z,1.20
2024-03-16T02:23:08.121Z,1.30
2024-03-16T02:25:36.561Z,1.13
2024-03-16T02:28:04.760Z,1.23
2024-03-16T02:30:32.966Z,1.20
2024-03-16T02:33:01.471Z,1.17
2024-03-16T02:35:28.514Z,1.30
2024-03-16T02:37:56.429Z,1.40
2024-03-16T02:40:24.386Z,1.47
2024-03-16T02:42:52.360Z,1.20
2024-03-16T02:45:20.348Z,1.53
2024-03-16T02:47:48.301Z,1.33
2024-03-16T02:50:16.292Z,1.30
2024-03-16T02:52:44.310Z,1.10
2024-03-16T02:55:12.817Z,1.27
2024-03-16T02:57:40.918Z,1.53
2024-03-16T03:00:12.425Z,1.20
2024-03-16T03:02:40.820Z,1.10
2024-03-16T03:05:12.572Z,1.40
2024-03-16T03:07:41.385Z,1.30
2024-03-16T03:10:10.166Z,1.30
2024-03-16T03:12:40.187Z,1.10
2024-03-16T03:15:10.399Z,1.20
2024-03-16T03:17:38.637Z,1.17
2024-03-16T03:20:10.212Z,1.30
2024-03-16T03:22:38.550Z,1.10
2024-03-16T03:25:06.922Z,1.20
2024-03-16T03:27:36.213Z,1.00
2024-03-16T03:30:05.220Z,0.90
2024-03-16T03:32:34.117Z,1.03
2024-03-16T03:35:02.764Z,0.90
2024-03-16T03:37:30.699Z,1.33
2024-03-16T03:39:59.128Z,1.00
2024-03-16T03:42:30.387Z,0.80
2024-03-16T03:45:12.362Z,0.80
2024-03-16T03:47:51.538Z,0.90
2024-03-16T03:50:27.776Z,0.90
2024-03-16T03:52:56.992Z,1.10
2024-03-16T03:55:24.978Z,1.10
2024-03-16T03:57:55.425Z,1.13
2024-03-16T04:00:23.968Z,1.10
2024-03-16T04:02:52.146Z,1.00
2024-03-16T04:05:20.040Z,1.30
2024-03-16T04:07:47.982Z,1.10
2024-03-16T04:10:16.257Z,1.40
2024-03-16T04:12:44.326Z,1.20
2024-03-16T04:15:12.338Z,1.10
2024-03-16T04:17:39.361Z,0.93
2024-03-16T04:20:11.556Z,1.23
2024-03-16T04:22:39.609Z,1.33
2024-03-16T04:25:10.155Z,1.20
2024-03-16T04:27:38.392Z,1.10
2024-03-16T04:30:07.547Z,1.20
2024-03-16T04:32:36.289Z,1.30
2024-03-16T04:35:05.890Z,1.43
2024-03-16T04:37:34.864Z,1.43
2024-03-16T04:40:05.089Z,1.40
2024-03-16T04:42:33.438Z,1.37
2024-03-16T04:45:01.910Z,1.27
2024-03-16T04:47:30.012Z,1.30
2024-03-16T04:49:58.620Z,1.57
2024-03-16T04:52:26.571Z,1.40
2024-03-16T04:54:54.593Z,1.40
2024-03-16T04:57:23.408Z,1.40
2024-03-16T04:59:51.395Z,1.40
2024-03-16T05:02:19.378Z,1.50
2024-03-16T05:04:47.341Z,1.30
2024-03-16T05:07:15.404Z,1.40
2024-03-16T05:09:43.503Z,1.60
2024-03-16T05:12:11.496Z,1.80
2024-03-16T05:14:39.479Z,1.73
2024-03-16T05:17:07.488Z,1.53
2024-03-16T05:19:35.390Z,1.70
2024-03-16T05:22:06.632Z,1.20
2024-03-16T05:24:34.883Z,1.90
2024-03-16T05:27:03.307Z,1.40
2024-03-16T05:29:31.246Z,1.70
2024-03-16T05:31:59.913Z,1.47
2024-03-16T05:34:27.820Z,1.40
2024-03-16T05:36:55.832Z,1.90
2024-03-16T05:39:23.759Z,2.40
2024-03-16T05:41:51.748Z,2.20
2024-03-16T05:44:19.734Z,1.93
2024-03-16T05:46:47.683Z,1.93
2024-03-16T05:49:16.090Z,2.00
2024-03-16T05:51:44.408Z,2.10
2024-03-16T05:54:12.939Z,1.93
2024-03-16T05:56:41.044Z,1.80
2024-03-16T05:59:10.665Z,1.83
2024-03-16T06:01:39.069Z,2.10
2024-03-16T06:04:07.456Z,1.87
2024-03-16T06:06:35.535Z,2.03
2024-03-16T06:09:06.702Z,1.80
2024-03-16T06:11:37.200Z,2.10
2024-03-16T06:14:05.727Z,2.00
2024-03-16T06:16:33.832Z,1.97
2024-03-16T06:19:01.890Z,2.00
2024-03-16T06:21:30.249Z,1.83
2024-03-16T06:23:58.281Z,1.67
2024-03-16T06:26:29.427Z,1.93
2024-03-16T06:29:06.423Z,2.00
2024-03-16T06:31:36.761Z,1.73
2024-03-16T06:34:06.410Z,1.37
2024-03-16T06:36:34.905Z,1.83
2024-03-16T06:39:07.215Z,1.90
2024-03-16T06:41:35.374Z,1.87
2024-03-16T06:44:03.843Z,1.53
2024-03-16T06:46:33.425Z,1.90
2024-03-16T06:49:07.172Z,1.80
2024-03-16T06:51:36.112Z,2.10
2024-03-16T06:54:05.068Z,1.97
2024-03-16T06:56:33.096Z,1.90
2024-03-16T06:59:01.831Z,1.83
2024-03-16T07:01:30.049Z,1.67
2024-03-16T07:03:58.288Z,1.60
2024-03-16T07:06:26.240Z,1.50
2024-03-16T07:08:54.209Z,1.60
2024-03-16T07:11:22.242Z,1.67
2024-03-16T07:13:50.228Z,1.63
2024-03-16T07:16:18.215Z,1.77
2024-03-16T07:18:46.315Z,1.70
2024-03-16T07:21:16.912Z,1.53
2024-03-16T07:23:48.228Z,1.53
2024-03-16T07:26:16.602Z,1.50
2024-03-16T07:28:47.812Z,1.77
2024-03-16T07:31:15.855Z,1.93
2024-03-16T07:33:43.949Z,1.67
2024-03-16T07:36:11.957Z,1.70
2024-03-16T07:38:39.933Z,1.40
2024-03-16T07:41:09.364Z,1.53
2024-03-16T07:43:37.384Z,1.77
2024-03-16T07:46:06.738Z,1.50
2024-03-16T07:48:36.945Z,1.47
2024-03-16T07:51:05.864Z,1.67
2024-03-16T07:53:33.881Z,1.97
2024-03-16T07:56:01.941Z,1.60
2024-03-16T07:58:29.968Z,1.70
2024-03-16T08:00:57.970Z,1.53
2024-03-16T08:03:26.989Z,1.30
2024-03-16T08:05:55.622Z,1.70
2024-03-16T08:08:24.473Z,1.00
2024-03-16T08:10:55.152Z,1.47
2024-03-16T08:13:24.281Z,1.70
2024-03-16T08:15:53.400Z,1.60
2024-03-16T08:18:21.725Z,1.50
2024-03-16T08:20:49.664Z,1.60
2024-03-16T08:23:20.112Z,1.60
2024-03-16T08:25:49.995Z,1.57
2024-03-16T08:28:18.066Z,2.10
2024-03-16T08:30:46.188Z,2.10
2024-03-16T08:33:14.440Z,1.87
2024-03-16T08:35:42.708Z,1.90
2024-03-16T08:38:10.695Z,1.70
2024-03-16T08:40:38.842Z,3.97
2024-03-16T08:43:08.690Z,4.30
2024-03-16T08:45:37.261Z,2.23
2024-03-16T08:48:06.060Z,3.50
2024-03-16T08:50:34.352Z,1.97
2024-03-16T08:53:02.354Z,2.07
2024-03-16T08:55:30.404Z,2.00
2024-03-16T08:57:58.542Z,2.10
2024-03-16T09:00:26.796Z,2.00
2024-03-16T09:02:54.781Z,2.27
2024-03-16T09:05:23.117Z,2.00
2024-03-16T09:07:51.137Z,2.23
2024-03-16T09:10:19.589Z,2.40
2024-03-16T09:12:48.238Z,4.50
2024-03-16T09:15:17.461Z,2.63
2024-03-16T09:17:45.538Z,2.33
2024-03-16T09:20:14.871Z,2.70
2024-03-16T09:22:43.314Z,1.90
2024-03-16T09:25:12.724Z,2.20
2024-03-16T09:27:41.241Z,2.40
2024-03-16T09:30:12.735Z,2.20
2024-03-16T09:32:41.851Z,3.33
2024-03-16T09:35:11.923Z,2.50
2024-03-16T09:37:40.276Z,2.33
2024-03-16T09:40:11.751Z,2.00
2024-03-16T09:42:40.407Z,2.87
